createdAt,value
2022-08-07T00:02:35.938Z,101273.39
2022-08-07T00:04:34.689Z,101273.66
2022-08-07T00:07:18.321Z,101275.77
2022-08-07T00:10:25.455Z,101279.58
2022-08-07T00:13:23.570Z,101281.84
2022-08-07T00:16:07.539Z,101282.45
2022-08-07T00:18:52.706Z,101284.91
2022-08-07T00:21:56.079Z,101284.89
2022-08-07T00:24:38.373Z,101280.21
2022-08-07T00:27:22.987Z,101281.84
2022-08-07T00:30:21.589Z,101280.88
2022-08-07T00:33:10.057Z,101279.90
2022-08-07T00:35:54.741Z,101286.35
2022-08-07T00:38:39.270Z,101287.63
2022-08-07T00:41:27.525Z,101291.00
2022-08-07T00:44:11.289Z,101289.88
2022-08-07T00:46:57.888Z,101284.98
2022-08-07T00:50:21.326Z,101281.41
2022-08-07T00:52:47.466Z,101277.02
2022-08-07T00:56:00.603Z,101273.64
2022-08-07T00:58:33.896Z,101278.56
2022-08-07T01:01:18.178Z,101278.92
2022-08-07T01:04:06.093Z,101272.91
2022-08-07T01:06:50.155Z,101277.65
2022-08-07T01:10:02.346Z,101277.34
2022-08-07T01:12:37.084Z,101277.99
2022-08-07T01:15:23.108Z,101279.27
2022-08-07T01:18:28.549Z,101281.14
2022-08-07T01:21:22.748Z,101281.67
2022-08-07T01:24:12.225Z,101286.23
2022-08-07T01:26:56.317Z,101284.14
2022-08-07T01:29:42.652Z,101284.02
2022-08-07T01:32:25.814Z,101280.94
2022-08-07T01:35:11.434Z,101284.95
2022-08-07T01:38:02.678Z,101282.38
2022-08-07T01:40:47.680Z,101283.80
2022-08-07T01:43:34.656Z,101284.69
2022-08-07T01:46:22.332Z,101288.40
2022-08-07T01:49:06.839Z,101289.88
2022-08-07T01:52:03.779Z,101289.61
2022-08-07T01:54:52.039Z,101291.05
2022-08-07T01:58:05.833Z,101293.03
2022-08-07T02:00:45.375Z,101295.65
2022-08-07T02:03:42.712Z,101295.66
2022-08-07T02:06:34.171Z,101297.67
2022-08-07T02:09:51.994Z,101299.38
2022-08-07T02:12:30.900Z,101297.48
2022-08-07T02:15:15.353Z,101297.98
2022-08-07T02:18:02.515Z,101294.40
2022-08-07T02:20:48.797Z,101292.73
2022-08-07T02:23:40.701Z,101290.26
2022-08-07T02:26:33.093Z,101290.94
2022-08-07T02:29:19.111Z,101293.55
2022-08-07T02:32:10.789Z,101294.73
2022-08-07T02:34:56.447Z,101293.77
2022-08-07T02:37:43.891Z,101295.65
2022-08-07T02:40:30.451Z,101295.77
2022-08-07T02:43:18.005Z,101294.70
2022-08-07T02:46:04.546Z,101295.02
2022-08-07T02:48:55.195Z,101291.09
2022-08-07T02:51:42.366Z,101297.70
2022-08-07T02:54:34.378Z,101297.77
2022-08-07T02:57:19.707Z,101300.59
2022-08-07T03:00:10.921Z,101302.76
2022-08-07T03:02:55.558Z,101304.10
2022-08-07T03:05:40.625Z,101299.05
2022-08-07T03:08:26.860Z,101302.20
2022-08-07T03:11:13.712Z,101303.01
2022-08-07T03:14:01.818Z,101298.90
2022-08-07T03:16:45.915Z,101293.79
2022-08-07T03:19:37.010Z,101294.02
2022-08-07T03:22:30.375Z,101292.20
2022-08-07T03:25:14.105Z,101294.30
2022-08-07T03:28:09.396Z,101293.12
2022-08-07T03:31:24.637Z,101290.05
2022-08-07T03:34:18.506Z,101288.32
2022-08-07T03:37:12.147Z,101288.58
2022-08-07T03:40:13.433Z,101288.31
2022-08-07T03:42:59.736Z,101288.91
2022-08-07T03:45:47.585Z,101289.92
2022-08-07T03:48:33.744Z,101287.43
2022-08-07T03:51:47.016Z,101290.07
2022-08-07T03:54:36.412Z,101294.55
2022-08-07T03:58:35.081Z,101295.35
2022-08-07T04:00:46.229Z,101295.55
2022-08-07T04:03:49.549Z,101305.33
2022-08-07T04:06:37.050Z,101304.25
2022-08-07T04:09:38.036Z,101306.48
2022-08-07T04:12:31.403Z,101310.15
2022-08-07T04:15:16.192Z,101320.34
2022-08-07T04:18:31.800Z,101319.36
2022-08-07T04:21:07.291Z,101321.73
2022-08-07T04:24:07.549Z,101315.90
2022-08-07T04:26:51.524Z,101313.80
2022-08-07T04:29:48.643Z,101313.70
2022-08-07T04:32:38.585Z,101315.44
2022-08-07T04:35:35.272Z,101316.85
2022-08-07T04:38:20.148Z,101313.23
2022-08-07T04:41:04.557Z,101313.30
2022-08-07T04:44:12.138Z,101315.50
2022-08-07T04:47:08.789Z,101314.04
2022-08-07T04:50:10.992Z,101318.34
2022-08-07T04:53:04.671Z,101319.78
2022-08-07T04:58:24.429Z,101322.06
2022-08-07T04:59:18.417Z,101325.93
2022-08-07T05:02:16.885Z,101331.44
2022-08-07T05:05:53.113Z,101333.34
2022-08-07T05:08:59.146Z,101336.01
2022-08-07T05:11:57.407Z,101336.69
2022-08-07T05:14:51.887Z,101338.14
2022-08-07T05:18:00.482Z,101340.55
2022-08-07T05:20:46.264Z,101342.11
2022-08-07T05:23:37.162Z,101344.45
2022-08-07T05:26:24.699Z,101343.31
2022-08-07T05:29:16.340Z,101338.66
2022-08-07T05:32:00.255Z,101339.34
2022-08-07T05:34:49.085Z,101336.05
2022-08-07T05:37:40.861Z,101341.10
2022-08-07T05:40:26.577Z,101343.71
2022-08-07T05:43:11.535Z,101343.96
2022-08-07T05:45:56.925Z,101345.30
2022-08-07T05:48:59.012Z,101346.39
2022-08-07T05:51:46.541Z,101348.96
2022-08-07T05:54:53.513Z,101343.65
2022-08-07T05:57:38.044Z,101347.46
2022-08-07T06:00:27.250Z,101349.41
2022-08-07T06:03:15.757Z,101351.38
2022-08-07T06:06:00.833Z,101357.30
2022-08-07T06:08:46.822Z,101356.71
2022-08-07T06:11:30.424Z,101355.66
2022-08-07T06:14:21.012Z,101356.27
2022-08-07T06:17:11.844Z,101355.95
2022-08-07T06:20:04.020Z,101354.42
2022-08-07T06:23:02.178Z,101358.91
2022-08-07T06:25:58.156Z,101355.41
2022-08-07T06:28:53.041Z,101351.17
2022-08-07T06:31:46.888Z,101357.29
2022-08-07T06:34:35.020Z,101359.25
2022-08-07T06:37:20.600Z,101355.36
2022-08-07T06:40:17.506Z,101357.06
2022-08-07T06:43:21.188Z,101358.06
2022-08-07T06:46:12.627Z,101356.91
2022-08-07T06:48:56.616Z,101357.66
2022-08-07T06:51:50.100Z,101359.72
2022-08-07T06:55:33.326Z,101359.30
2022-08-07T06:57:47.700Z,101359.91
2022-08-07T07:00:39.162Z,101356.88
2022-08-07T07:03:39.627Z,101357.20
2022-08-07T07:06:28.927Z,101353.14
2022-08-07T07:09:24.053Z,101353.96
2022-08-07T07:12:31.170Z,101352.26
2022-08-07T07:15:24.173Z,101352.10
2022-08-07T07:18:15.349Z,101352.25
2022-08-07T07:21:27.271Z,101346.87
2022-08-07T07:24:24.243Z,101346.08
2022-08-07T07:27:09.602Z,101349.92
2022-08-07T07:30:09.736Z,101344.40
2022-08-07T07:32:57.645Z,101337.20
2022-08-07T07:35:51.831Z,101339.85
2022-08-07T07:38:46.191Z,101339.48
2022-08-07T07:41:50.830Z,101337.61
2022-08-07T07:44:38.110Z,101329.56
2022-08-07T07:47:24.806Z,101328.57
2022-08-07T07:50:36.253Z,101326.80
2022-08-07T07:53:23.012Z,101326.95
2022-08-07T07:56:09.079Z,101327.93
2022-08-07T07:58:53.033Z,101325.41
2022-08-07T08:02:03.465Z,101327.73
2022-08-07T08:04:46.618Z,101327.10
2022-08-07T08:07:42.344Z,101323.69
2022-08-07T08:10:38.725Z,101327.90
2022-08-07T08:13:24.564Z,101330.09
2022-08-07T08:16:20.385Z,101327.52
2022-08-07T08:20:15.830Z,101324.81
2022-08-07T08:22:33.805Z,101328.02
2022-08-07T08:25:42.343Z,101326.00
2022-08-07T08:28:37.867Z,101329.60
2022-08-07T08:31:30.246Z,101326.10
2022-08-07T08:34:31.535Z,101327.53
2022-08-07T08:38:01.579Z,101325.90
2022-08-07T08:40:29.411Z,101329.84
2022-08-07T08:43:17.685Z,101327.38
2022-08-07T08:46:12.807Z,101325.85
2022-08-07T08:49:05.114Z,101328.53
2022-08-07T08:52:12.993Z,101330.85
2022-08-07T08:55:07.726Z,101334.96
2022-08-07T08:58:03.006Z,101333.87
2022-08-07T09:00:52.755Z,101333.29
2022-08-07T09:03:48.019Z,101334.66
2022-08-07T09:06:48.207Z,101332.04
2022-08-07T09:09:48.469Z,101332.93
2022-08-07T09:12:54.069Z,101334.42
2022-08-07T09:16:24.255Z,101335.03
2022-08-07T09:19:53.387Z,101331.33
2022-08-07T09:24:30.927Z,101329.52
2022-08-07T09:25:54.259Z,101323.61
2022-08-07T09:30:05.475Z,101318.86
2022-08-07T09:31:54.688Z,101320.35
2022-08-07T09:34:54.004Z,101313.88
2022-08-07T09:37:48.268Z,101318.67
2022-08-07T09:40:50.564Z,101315.94
2022-08-07T09:44:05.705Z,101310.58
2022-08-07T09:47:51.998Z,101310.40
2022-08-07T09:50:26.450Z,101307.23
2022-08-07T09:53:15.078Z,101304.45
2022-08-07T09:56:19.793Z,101303.59
2022-08-07T09:59:46.193Z,101292.67
2022-08-07T10:03:08.219Z,101291.98
2022-08-07T10:06:35.651Z,101285.11
2022-08-07T10:09:42.747Z,101286.08
2022-08-07T10:12:55.776Z,101287.05
2022-08-07T10:15:49.729Z,101291.16
2022-08-07T10:19:16.227Z,101285.02
2022-08-07T10:22:15.889Z,101278.61
2022-08-07T10:25:16.253Z,101274.33
2022-08-07T10:28:30.700Z,101269.50
2022-08-07T10:31:38.501Z,101266.33
2022-08-07T10:34:40.641Z,101273.42
2022-08-07T10:37:48.592Z,101268.40
2022-08-07T10:40:50.161Z,101262.42
2022-08-07T10:43:42.560Z,101259.80
2022-08-07T10:46:29.529Z,101259.34
2022-08-07T10:49:24.447Z,101245.39
2022-08-07T10:52:13.962Z,101242.21
2022-08-07T10:55:26.688Z,101238.58
2022-08-07T10:58:33.122Z,101229.17
2022-08-07T11:01:51.597Z,101226.07
2022-08-07T11:05:10.761Z,101228.77
2022-08-07T11:08:12.737Z,101224.54
2022-08-07T11:11:05.908Z,101220.64
2022-08-07T11:14:45.253Z,101219.20
2022-08-07T11:17:07.384Z,101213.27
2022-08-07T11:19:57.770Z,101217.11
2022-08-07T11:22:49.198Z,101217.63
2022-08-07T11:25:48.245Z,101218.73
2022-08-07T11:28:41.042Z,101220.36
2022-08-07T11:31:35.258Z,101216.45
2022-08-07T11:34:24.452Z,101212.13
2022-08-07T11:37:17.731Z,101207.50
2022-08-07T11:40:23.351Z,101204.31
2022-08-07T11:43:17.339Z,101201.09
2022-08-07T11:46:33.701Z,101195.34
2022-08-07T11:50:18.664Z,101189.80
2022-08-07T11:52:55.704Z,101187.02
2022-08-07T11:56:15.579Z,101187.14
2022-08-07T12:00:08.196Z,101187.67
2022-08-07T12:02:33.494Z,101187.02
2022-08-07T12:05:28.909Z,101184.45
2022-08-07T12:08:34.741Z,101184.63
2022-08-07T12:11:22.587Z,101181.39
2022-08-07T12:14:11.381Z,101177.61
2022-08-07T12:17:01.172Z,101173.61
2022-08-07T12:19:56.190Z,101175.81
2022-08-07T12:22:56.210Z,101170.67
2022-08-07T12:26:03.522Z,101170.77
2022-08-07T12:29:03.613Z,101166.91
2022-08-07T12:32:01.972Z,101168.25
2022-08-07T12:34:55.801Z,101169.34
2022-08-07T12:38:11.749Z,101163.23
2022-08-07T12:40:48.774Z,101158.92
2022-08-07T12:44:02.136Z,101156.32
2022-08-07T12:47:00.700Z,101151.84
2022-08-07T12:50:00.268Z,101152.88
2022-08-07T12:52:56.644Z,101149.98
2022-08-07T12:56:03.506Z,101147.17
2022-08-07T12:58:57.297Z,101142.54
2022-08-07T13:01:55.690Z,101140.22
2022-08-07T13:05:14.658Z,101137.42
2022-08-07T13:08:22.684Z,101131.23
2022-08-07T13:11:24.640Z,101130.86
2022-08-07T13:14:19.152Z,101124.17
2022-08-07T13:17:13.318Z,101127.73
2022-08-07T13:20:08.508Z,101123.00
2022-08-07T13:22:59.715Z,101125.52
2022-08-07T13:26:00.859Z,101118.66
2022-08-07T13:28:52.452Z,101113.55
2022-08-07T13:31:54.961Z,101108.63
2022-08-07T13:34:50.825Z,101109.39
2022-08-07T13:37:49.639Z,101106.14
2022-08-07T13:40:57.392Z,101101.82
2022-08-07T13:43:44.066Z,101097.71
2022-08-07T13:46:41.896Z,101093.04
2022-08-07T13:50:34.239Z,101089.09
2022-08-07T13:52:44.035Z,101092.58
2022-08-07T13:55:34.021Z,101088.45
2022-08-07T13:58:39.143Z,101083.13
2022-08-07T14:01:25.910Z,101076.96
2022-08-07T14:04:10.687Z,101074.92
2022-08-07T14:06:55.513Z,101073.01
2022-08-07T14:10:02.489Z,101072.35
2022-08-07T14:12:57.113Z,101068.52
2022-08-07T14:15:42.525Z,101063.07
2022-08-07T14:18:31.382Z,101062.55
2022-08-07T14:22:41.152Z,101056.23
2022-08-07T14:24:41.196Z,101055.00
2022-08-07T14:28:11.843Z,101050.81
2022-08-07T14:30:34.981Z,101048.52
2022-08-07T14:33:22.432Z,101044.91
2022-08-07T14:36:09.607Z,101044.31
2022-08-07T14:39:01.738Z,101044.87
2022-08-07T14:42:19.778Z,101044.64
2022-08-07T14:44:59.537Z,101038.42
2022-08-07T14:47:47.078Z,101041.07
2022-08-07T14:50:30.869Z,101039.45
2022-08-07T14:54:05.555Z,101041.59
2022-08-07T15:00:05.128Z,101034.74
2022-08-07T15:02:37.037Z,101032.73
2022-08-07T15:05:25.188Z,101028.89
2022-08-07T15:08:12.629Z,101030.51
2022-08-07T15:10:59.623Z,101023.95
2022-08-07T15:13:52.542Z,101025.95
2022-08-07T15:16:39.332Z,101025.73
2022-08-07T15:22:54.055Z,101026.58
2022-08-07T15:25:40.339Z,101026.37
2022-08-07T15:32:01.939Z,101020.52
2022-08-07T15:34:50.647Z,101020.72
2022-08-07T15:38:04.456Z,101014.52
2022-08-07T15:41:00.518Z,101011.98
2022-08-07T15:43:59.174Z,101012.59
2022-08-07T15:46:52.039Z,101010.61
2022-08-07T15:52:41.284Z,101008.17
2022-08-07T15:55:25.159Z,101006.70
2022-08-07T15:58:37.263Z,101002.90
2022-08-07T16:01:24.761Z,101002.25
2022-08-07T16:04:29.090Z,101001.67
2022-08-07T16:08:28.459Z,100999.48
2022-08-07T16:10:24.923Z,100999.05
2022-08-07T16:13:57.781Z,100999.84
2022-08-07T16:17:14.864Z,101002.23
2022-08-07T16:20:33.929Z,100996.69
2022-08-07T16:23:53.431Z,100996.84
2022-08-07T16:26:59.537Z,100995.80
2022-08-07T16:30:29.803Z,100993.88
2022-08-07T16:34:02.403Z,100994.15
2022-08-07T16:36:31.435Z,101000.92
2022-08-07T16:39:40.470Z,100996.70
2022-08-07T16:42:55.069Z,100994.95
2022-08-07T16:46:47.167Z,100992.02
2022-08-07T16:50:27.790Z,100991.39
2022-08-07T16:54:02.532Z,100991.67
2022-08-07T16:56:18.859Z,100990.38
2022-08-07T16:59:17.306Z,100992.58
2022-08-07T17:02:51.414Z,100989.48
2022-08-07T17:06:28.176Z,100993.23
2022-08-07T17:09:09.722Z,100994.73
2022-08-07T17:12:04.892Z,100991.63
2022-08-07T17:15:16.255Z,100988.95
2022-08-07T17:18:14.246Z,100992.23
2022-08-07T17:20:57.914Z,100995.21
2022-08-07T17:23:51.386Z,100995.33
2022-08-07T17:26:50.006Z,100992.29
2022-08-07T17:30:15.974Z,100998.77
2022-08-07T17:33:39.214Z,100996.27
2022-08-07T17:36:26.500Z,100998.71
2022-08-07T17:39:16.456Z,100996.20
2022-08-07T17:42:06.549Z,100995.80
2022-08-07T17:44:55.357Z,100998.73
2022-08-07T17:47:53.952Z,101000.44
2022-08-07T17:50:57.466Z,101000.46
2022-08-07T17:54:01.419Z,101002.73
2022-08-07T17:56:54.730Z,101005.67
2022-08-07T17:59:44.130Z,101006.27
2022-08-07T18:02:36.215Z,101006.17
2022-08-07T18:06:01.015Z,101008.52
2022-08-07T18:08:36.310Z,101014.86
2022-08-07T18:12:07.731Z,101011.62
2022-08-07T18:14:59.683Z,101009.23
2022-08-07T18:18:46.657Z,101007.45
2022-08-07T18:21:38.315Z,101010.05
2022-08-07T18:24:33.585Z,101015.78
2022-08-07T18:27:38.570Z,101023.73
2022-08-07T18:30:36.756Z,101024.13
2022-08-07T18:33:56.632Z,101029.56
2022-08-07T18:36:53.878Z,101032.77
2022-08-07T18:40:08.407Z,101032.92
2022-08-07T18:43:00.507Z,101031.64
2022-08-07T18:46:22.042Z,101032.73
2022-08-07T18:50:05.244Z,101034.16
2022-08-07T18:52:53.874Z,101036.36
2022-08-07T18:55:55.867Z,101042.10
2022-08-07T18:58:54.617Z,101048.71
2022-08-07T19:02:17.200Z,101048.96
2022-08-07T19:05:15.049Z,101050.78
2022-08-07T19:08:05.996Z,101055.86
2022-08-07T19:10:58.951Z,101054.41
2022-08-07T19:14:08.005Z,101050.55
2022-08-07T19:17:07.790Z,101058.89
2022-08-07T19:20:03.587Z,101057.35
2022-08-07T19:23:00.814Z,101058.23
2022-08-07T19:26:24.982Z,101069.10
2022-08-07T19:30:54.612Z,101073.48
2022-08-07T19:32:18.640Z,101073.09
2022-08-07T19:35:11.109Z,101069.67
2022-08-07T19:37:58.507Z,101072.34
2022-08-07T19:40:49.319Z,101073.58
2022-08-07T19:43:43.535Z,101074.08
2022-08-07T19:46:39.657Z,101074.16
2022-08-07T19:49:57.209Z,101077.84
2022-08-07T19:52:42.580Z,101072.99
2022-08-07T19:55:56.408Z,101069.02
2022-08-07T19:58:50.378Z,101066.23
2022-08-07T20:01:52.622Z,101067.71
2022-08-07T20:04:48.854Z,101067.68
2022-08-07T20:07:47.609Z,101065.83
2022-08-07T20:10:54.194Z,101064.27
2022-08-07T20:13:45.939Z,101069.98
2022-08-07T20:16:35.247Z,101075.95
2022-08-07T20:19:23.263Z,101078.10
2022-08-07T20:22:15.168Z,101080.90
2022-08-07T20:25:06.119Z,101084.33
2022-08-07T20:27:58.424Z,101083.70
2022-08-07T20:30:46.874Z,101086.33
2022-08-07T20:33:36.846Z,101084.79
2022-08-07T20:36:21.769Z,101086.14
2022-08-07T20:39:17.887Z,101090.71
2022-08-07T20:42:12.329Z,101089.13
2022-08-07T20:45:00.372Z,101088.48
2022-08-07T20:47:56.330Z,101086.23
2022-08-07T20:50:43.025Z,101084.88
2022-08-07T20:54:02.833Z,101086.31
2022-08-07T20:56:40.546Z,101084.20
2022-08-07T21:00:06.868Z,101087.38
2022-08-07T21:03:00.710Z,101084.66
2022-08-07T21:05:54.819Z,101084.16
2022-08-07T21:08:41.240Z,101080.45
2022-08-07T21:11:29.052Z,101079.38
2022-08-07T21:14:33.069Z,101078.56
2022-08-07T21:18:02.189Z,101079.80
2022-08-07T21:20:33.229Z,101081.06
2022-08-07T21:23:27.804Z,101078.60
2022-08-07T21:26:22.012Z,101081.77
2022-08-07T21:29:15.655Z,101083.66
2022-08-07T21:32:47.483Z,101087.71
2022-08-07T21:35:15.158Z,101091.98
2022-08-07T21:38:08.811Z,101089.51
2022-08-07T21:41:01.921Z,101091.38
2022-08-07T21:43:56.062Z,101091.70
2022-08-07T21:46:46.944Z,101093.16
2022-08-07T21:49:40.720Z,101094.15
2022-08-07T21:52:57.079Z,101091.13
2022-08-07T21:55:49.241Z,101091.84
2022-08-07T21:58:45.870Z,101097.64
2022-08-07T22:02:10.088Z,101099.46
2022-08-07T22:04:52.727Z,101100.34
2022-08-07T22:07:58.090Z,101098.10
2022-08-07T22:10:45.795Z,101101.44
2022-08-07T22:13:51.866Z,101100.89
2022-08-07T22:16:46.885Z,101104.39
2022-08-07T22:19:36.913Z,101106.11
2022-08-07T22:22:28.949Z,101108.61
2022-08-07T22:25:18.798Z,101112.45
2022-08-07T22:28:31.173Z,101111.92
2022-08-07T22:31:45.158Z,101113.39
2022-08-07T22:34:39.886Z,101114.07
2022-08-07T22:38:04.460Z,101111.59
2022-08-07T22:40:54.500Z,101110.27
2022-08-07T22:43:42.865Z,101105.02
2022-08-07T22:47:03.563Z,101106.80
2022-08-07T22:50:20.759Z,101107.41
2022-08-07T22:54:08.867Z,101101.77
2022-08-07T22:56:46.086Z,101099.30
2022-08-07T22:59:50.025Z,101098.63
2022-08-07T23:02:46.817Z,101098.01
2022-08-07T23:06:08.454Z,101098.02
2022-08-07T23:10:05.911Z,101097.81
2022-08-07T23:12:37.190Z,101096.14
2022-08-07T23:16:06.093Z,101096.64
2022-08-07T23:19:11.160Z,101094.86
2022-08-07T23:22:03.869Z,101092.19
2022-08-07T23:24:58.639Z,101094.38
2022-08-07T23:28:28.655Z,101090.14
2022-08-07T23:32:49.594Z,101088.10
2022-08-07T23:35:01.107Z,101086.63
2022-08-07T23:38:42.428Z,101089.02
2022-08-07T23:42:02.058Z,101086.76
2022-08-07T23:45:15.106Z,101086.77
2022-08-07T23:48:59.457Z,101095.56
2022-08-07T23:52:59.976Z,101096.48
2022-08-07T23:54:57.869Z,101091.33
2022-08-07T23:57:43.800Z,101087.59
